Hlavní strana
METAR-TAF:

METAR-TAF

Letiště :

Tuzla, Bosna a Hercegovina

zeměpisná šířka: 44-33N, zeměpisná délka: 018-42E, výška: 306 m

Aktuální stav počasí

Zpráva byla vytvořena před 15 minutami, v 06:30 UTC
vítr z různých směrů 1 kt
Teplota 24°C
Vlhkost vzduchu 74%
Tlak 1018 hPa
Viditelnost 10 km a více
Žádná oblačnost pod 1500 m, nevyskytují se cumulonimby.

METAR: LQTZ 190630Z VRB01KT CAVOK 24/19 Q1018

Čas: 08:45 (06:45 UTC)

Předpověď počasí

Zpráva byla vytvořena před 1 hodinou a 45 minutami, v 05:00 UTC
Předpověď platná od 19 v 06 UTC do 20 v 06 UTC
Východoseverovýchodní vítr 6 kt
Viditelnost 10 km a více
Žádná oblačnost pod 1500 m, nevyskytují se cumulonimby.

TAF: LQTZ 190500Z 1906/2006 06006KT CAVOK TX36/1914Z TN17/2003Z

Stav a předpovědi počasí z více než 4 000 letišť (zprávy METAR a TAF).

Červené a žluté tečky na mapě představují dostupné meteorologické stanice.

Když kurzor umístíte na tečku, zobrazí se název stanice.

Pak kliknutím zobrazíte stav a předpověď počasí.

Chcete-li změnit mapu, kliknutím na zelené tlačítko se znaménkem +mapu přiblížíte, kliknutím na zelené tlačítko se znaménkem – mapu oddálíte a kliknutím na zelené šipky přejdete na sousední mapy.


METAR-TAF: